Loisir ou Compétition : Rejoignez un Club de la Fédération

Résultats

SAMSE NATIONAL TOUR 5 - MASS START

LES ROUSSES - Les Tuffes

MASS Hommes

Jury de Compétition

Délégué Technique :
TICHIT PHILIPPE ()
D.T. Adjoint :
FROSSARD CHRISTIAN (SA)
Dir. Epreuve :
ARDIET NICOLAS (MJ)

Caractéristiques de la Piste

Piste :
Stade des Tuffes
Distance :
10 km
Point Haut :
 
Point Bas :
 
Montée Tot. :
 
Montée Max. :
 
Homologation :
 

Pénalité Appliquée :
90.0000
Coefficient :
1400

Catégorie :
U17
Style :
L
Clt Dos Clt/Cat Code An Nom Prénom Com Club Temps Ecart Points
Classés
1 2 1/U17 FFS2670579 2003 ALLEMAND NEIL AP AS EDELWEISS 21:05.5 00:00.0 90.00
2 22 2/U17 FFS2660024 2003 JACOB CORENTIN MV BASS/RUPT SN 21:10.4 00:04.9 95.42
3 7 3/U17 FFS2670999 2003 BERNAUDON MATHIS AP MTGVE V.CLAR 21:11.3 00:05.8 96.42
4 15 4/U17 FFS2656732 2003 BLANC MATHIEU SA CS MERIBEL 21:19.3 00:13.8 105.27
5 11 5/U17 FFS2671811 2003 TYRODE JOSSE MJ SC LESFOURGS 21:21.2 00:15.7 107.37
6 12 6/U17 FFS2665222 2004 DEUFFIC CHARLY DA US AUTRANNAI 21:22.4 00:16.9 108.70
7 1 7/U17 FFS2663675 2003 ESSONNIER IVAN SA CS LA FECLAZ 21:28.2 00:22.7 115.11
8 26 8/U17 FFS2661951 2004 SEROT HUGO SA SC BOZEL 21:29.8 00:24.3 116.88
9 18 9/U17 FFS2653739 2003 GALLOIS ROMAN MJ BOIS D'AMONT 21:30.4 00:24.9 117.55
10 8 10/U17 FFS2666640 2004 LAISSUS MILHAN SA SC MENUIRES 21:33.3 00:27.8 120.75
11 19 11/U17 FFS2664151 2004 CAILLOT FELIX DA SA MEAUDRAIS 21:36.5 00:31.0 124.29
12 35 12/U17 FFS2677441 2004 BUET PIERRE LOIC MJ SMBM/MORBIER 21:39.4 00:33.9 127.50
13 32 13/U17 FFS2665846 2004 SAGE MARTIN DA SN CHARTROUS 21:42.6 00:37.1 131.04
14 6 14/U17 FFS2681218 2003 ROUTIN HUGO MB PRAZ LYS-SOM 21:45.7 00:40.2 134.47
15 28 15/U17 FFS2658787 2004 GAULIER AUBIN DA CS VILLARD 21:48.9 00:43.4 138.01
16 24 16/U17 FFS2675692 2004 LEUENBERGER LEO MV SC XONRUPT 21:49.4 00:43.9 138.57
17 36 17/U17 FFS2666711 2004 DONET GAETAN DA SA MEAUDRAIS 21:50.7 00:45.2 140.00
18 21 18/U17 FFS2659978 2004 BOTET MARTIN MV LA BRESSAUDE 21:51.0 00:45.5 140.34
19 31 19/U17 FFS2676132 2004 ZANELLATO UGO SA CS LA FECLAZ 21:54.2 00:48.7 143.88
20 16 20/U17 FFS2658773 2003 MARSEILLE NATHAN AP GAP-BAYARD 22:00.5 00:55.0 150.85
21 14 21/U17 FFS2659939 2004 PORRET EMIL DA US AUTRANNAI 22:06.4 01:00.9 157.37
22 10 22/U17 FFS2675689 2003 MALGRAND HUGO MB PRAZ LYS-SOM 22:13.4 01:07.9 165.12
23 13 23/U17 FFS2664168 2004 VINCENT LENNIE MJ SKI ROUSSES 22:14.4 01:08.9 166.22
24 34 24/U17 FFS2681916 2003 BERROT MARTIN MJ OYE-PALLET 22:15.3 01:09.8 167.22
25 29 25/U17 FFS2665667 2003 SCHULTZ PAUL LY SC LE POIZAT 22:16.8 01:11.3 168.88
26 87 26/U17 FFS2676385 2003 PATUREL GAETAN MB SCNP ROCHOIS 22:17.9 01:12.4 170.09
27 88 27/U17 FFS2657534 2003 PIALAT MAXENCE MB CS LA CLUSAZ 22:20.4 01:14.9 172.86
28 20 28/U17 FFS2670259 2004 BLANCHARD TITOUAN MB CS LA CLUSAZ 22:21.1 01:15.6 173.63
29 5 29/U17 FFS2682382 2003 BOURGON JULES MJ SC VERRIERES 22:22.8 01:17.3 175.52
30 91 30/U17 FFS2682672 2003 GENY EDGAR MB SALLANCHES 22:23.2 01:17.7 175.96
31 40 31/U17 FFS2670581 2003 CHEVALIER BOIVERT QUENTIN AP AS EDELWEISS 22:32.2 01:26.7 185.91
32 43 32/U17 FFS2676774 2004 PETIOT PAUL AP ES VALLOUISE 22:40.1 01:34.6 194.65
33 37 33/U17 FFS2661244 2003 VERGNOLLE TITOUAN DA SN CHARTROUS 22:42.7 01:37.2 197.53
34 27 34/U17 FFS2658355 2004 DOUILLET BAPTISTE DA SN CHARTROUS 22:45.9 01:40.4 201.07
35 39 35/U17 FFS2673533 2004 TUILLIERE ANDEOL AP LES TROLLS 22:47.1 01:41.6 202.40
36 23 36/U17 FFS2681664 2004 PERROUD DORIAN MB SCNP ROCHOIS 22:54.1 01:48.6 210.14
37 52 37/U17 FFS2677531 2004 RAULIN TIMOTHE AP ES VALLOUISE 22:54.6 01:49.1 210.70
38 30 38/U17 FFS2676994 2004 GENEST NOA AU SC MEZENC 22:58.2 01:52.7 214.68
39 89 39/U17 FFS2670501 2003 MARTINET IAN MJ HT JURA SKI 23:02.8 01:57.3 219.77
40 51 40/U17 FFS2662962 2004 PANISSET SIMON MB SC GD BORNAN 23:05.3 01:59.8 222.53
41 69 41/U17 FFS2682515 2004 TOURNIER GABIN MJ ES SAUGETTE 23:06.7 02:01.2 224.08
42 93 42/U17 FFS2681339 2003 LONCHAMPT LEO MJ PREMANON SC 23:09.1 02:03.6 226.74
43 90 43/U17 FFS2656962 2003 GARNIER AXEL MB SALLANCHES 23:13.2 02:07.7 231.27
44 47 44/U17 FFS2678952 2004 FAVRE BONVIN TITOUAN MB SC GD BORNAN 23:16.6 02:11.1 235.03
45 25 45/U17 FFS2661562 2003 CHATEAUNEUF OSCAR MJ BOIS D'AMONT 23:19.9 02:14.4 238.68
46 44 46/U17 FFS2680999 2004 GRAND JULIEN MJ SC GRANDVAUX 23:20.6 02:15.1 239.46
47 54 47/U17 FFS2665219 2004 COSTE NIELS DA US AUTRANNAI 23:25.4 02:19.9 244.77
48 63 48/U17 FFS2686203 2004 MIGNOT BAPTISTE MJ SMBM/MORBIER 23:25.7 02:20.2 245.10
49 95 49/U17 FFS2686204 2004 PASTEUR PIERRICK MJ SC ABBAYE 23:26.1 02:20.6 245.54
50 96 50/U17 FFS2676440 2004 DREZET JAUFRET MJ CSR PONTARLI 23:28.2 02:22.7 247.87
51 38 51/U17 FFS2674515 2004 LANNE ANTOINE PE SC AZUN 23:29.4 02:23.9 249.19
52 53 52/U17 FFS2676777 2004 FRIBOURG QUENTIN AP SAUZE BARCEL 23:29.8 02:24.3 249.64
53 42 53/U17 FFS2681663 2004 LEVET GASTON MB SCNP ROCHOIS 23:38.1 02:32.6 258.82
53 65 53/U17 FFS2686207 2004 CHOLVY ARTHUR AU CN ST JULIEN 23:38.1 02:32.6 258.82
55 84 55/U17 FFS2696374 2004 FUCHS ARTHUR MB CS LA CLUSAZ 23:39.2 02:33.7 260.04
56 50 56/U17 FFS2686357 2004 FAUVEL ROMAIN MV LAC BLANC SN 23:41.3 02:35.8 262.36
57 62 57/U17 FFS2686923 2004 JACQUES ALBAN MJ OYE-PALLET 23:43.2 02:37.7 264.46
58 61 58/U17 FFS2665905 2004 MAGINI ELOHANN LY CS VALROMEY 23:46.4 02:40.9 268.00
59 82 59/U17 FFS2660505 2003 LECONTE VICTOR DA US AUTRANNAI 23:46.8 02:41.3 268.44
60 73 60/U17 FFS2687019 2004 LECOCQ CLEMENT AU CNAP 23:49.7 02:44.2 271.65
61 68 61/U17 FFS2648791 2004 FORTINA ADAM MB SC CONTAMINE 23:53.3 02:47.8 275.63
62 71 62/U17 FFS2687338 2004 RENAUD ALIX MJ DAMPRICHARD 23:53.8 02:48.3 276.19
63 46 63/U17 FFS2681002 2004 GONIN LEANDRE MB SC GD BORNAN 23:55.4 02:49.9 277.96
64 67 64/U17 FFS2670606 2003 SIMONOT ANTONIN SA CS LA FECLAZ 23:56.1 02:50.6 278.73
65 109 65/U17 FFS2677376 2004 SAINTOT MATHEO MJ SC MONT NOIR 23:58.3 02:52.8 281.17
66 77 66/U17 FFS2688655 2004 MOUCHET ZIAN MJ OYE-PALLET 24:02.7 02:57.2 286.03
67 41 67/U17 FFS2658036 2003 BARON BAPTISTE MB CS LA CLUSAZ 24:03.5 02:58.0 286.92
68 92 68/U17 FFS2672901 2004 HEQUET THOMAS MJ OLYMP MT DOR 24:05.9 03:00.4 289.57
69 45 69/U17 FFS2686392 2004 WERNER JOCELYN MV LAC BLANC SN 24:07.3 03:01.8 291.12
70 48 70/U17 FFS2677438 2004 GLAVIEUX GUSTAVE MJ SMBM/MORBIER 24:13.9 03:08.4 298.42
71 75 71/U17 FFS2664257 2004 MOREL VICTOR MJ SKI ROUSSES 24:20.0 03:14.5 305.17
72 80 72/U17 FFS2670788 2004 BOUCAUD RAPHAEL DA US AUTRANNAI 24:26.9 03:21.4 312.81
73 81 73/U17 FFS2705258 2004 POGOSIAN SEROJA MJ SC MONT NOIR 24:34.6 03:29.1 321.32
74 97 74/U17 FFS2686557 2004 NAPPEY ALEXIS MJ VAL MORTEAU 24:36.0 03:30.5 322.87
75 76 75/U17 FFS2681694 2004 REBOULLET TOM MJ HT JURA SKI 24:38.6 03:33.1 325.75
76 94 76/U17 FFS2677221 2003 BARRAU NOA MB SALLANCHES 24:41.2 03:35.7 328.63
77 74 77/U17 FFS2681190 2004 SCHMITT MILO MJ HT JURA SKI 24:43.7 03:38.2 331.39
78 106 78/U17 FFS2677012 2004 BATLOGG THEOTIME MJ CSR PONTARLI 25:00.9 03:55.4 350.42
79 107 79/U17 FFS2687265 2004 POCHARD ALEX KENZO MJ CSR PONTARLI 25:02.8 03:57.3 352.52
80 78 80/U17 FFS2688059 2004 GUYETAND BASTIEN PE MONT ARG PVG 25:12.4 04:06.9 363.14
81 64 81/U17 FFS2676581 2004 ROUX MATTEO AP MTGVE V.CLAR 25:12.7 04:07.2 363.47
82 79 82/U17 FFS2686888 2004 PELLEGRINI NINO MJ OYE-PALLET 25:36.2 04:30.7 389.47
83 85 83/U17 FFS2695609 2003 SCHAUS REMY MV BASS/RUPT SN 25:45.8 04:40.3 400.09
84 83 84/U17 FFS2676796 2003 KIEFFER LUDOVIC MV MOLSHEIM SN 26:08.1 05:02.6 424.76
85 72 85/U17 FFS2681798 2004 SAVOIE GASTON MJ HT JURA SKI 26:18.4 05:12.9 436.16
86 104 86/U17 FFS2686747 2004 GAUDET CELIAN MJ OLYMP MT DOR 26:27.3 05:21.8 446.00
87 99 87/U17 FFS2691698 2004 GEORGES THIBAULT MB SALLANCHES 26:29.1 05:23.6 447.99
88 66 88/U17 FFS2664963 2004 BOURDE MARTIN AU CNAP 26:33.9 05:28.4 453.30
89 100 89/U17 FFS2697033 2004 MICHAUD CLARET TONY MJ CSR PONTARLI 26:42.5 05:37.0 462.82
90 108 90/U17 FFS2651031 2003 VINCENT LUCAS MJ PREMANON SC 26:57.2 05:51.7 479.08
91 70 91/U17 FFS2665901 2004 JACQUET GAEL LY CS VALROMEY 27:03.8 05:58.3 486.38
92 112 92/U17 FFS2686744 2004 VUEZ FELIX MJ OLYMP MT DOR 27:47.1 06:41.6 534.28
93 86 93/U17 FFS2699650 2003 FINK HUGO MV BASS/RUPT SN 28:21.8 07:16.3 572.67
Abandons
4 FFS2675463 2003 MISSILLIER CONSTANT MB SC GD BORNAN
9 FFS2676437 2003 BAVEREL PIERRE MJ ES SAUGETTE
111 FFS2691342 2004 JEAN ALEXIS CLEMENT MJ CSR PONTARLI
Non partants
3 FFS2670987 2003 VAUTHIER MATHURIN MV LA BRESSAUDE
17 FFS2666900 2004 JAN PIERRE MV GERARDMER SN
33 FFS2664692 2004 GROS MICHELE MB SC CONTAMINE
98 FFS2677009 2004 MOUGIN ANAEL MJ A.S MOUTHE